createdAt,value
2022-09-15T00:01:10.809Z,16.70
2022-09-15T00:03:39.109Z,16.90
2022-09-15T00:06:09.917Z,16.80
2022-09-15T00:08:37.321Z,16.80
2022-09-15T00:11:10.796Z,16.80
2022-09-15T00:13:39.636Z,16.90
2022-09-15T00:16:14.647Z,17.00
2022-09-15T00:18:43.087Z,17.10
2022-09-15T00:21:18.120Z,17.10
2022-09-15T00:23:45.794Z,17.00
2022-09-15T00:26:16.333Z,17.00
2022-09-15T00:28:43.914Z,17.00
2022-09-15T00:31:15.005Z,17.00
2022-09-15T00:33:42.181Z,17.00
2022-09-15T00:36:12.661Z,17.10
2022-09-15T00:38:40.450Z,17.10
2022-09-15T00:41:11.264Z,17.20
2022-09-15T00:44:05.402Z,17.20
2022-09-15T00:46:41.026Z,17.20
2022-09-15T00:49:21.120Z,17.20
2022-09-15T00:51:54.784Z,17.20
2022-09-15T00:54:43.875Z,17.20
2022-09-15T00:57:19.805Z,17.10
2022-09-15T00:59:48.804Z,17.20
2022-09-15T01:02:33.327Z,17.10
2022-09-15T01:05:05.493Z,17.10
2022-09-15T01:07:47.919Z,17.10
2022-09-15T01:10:36.243Z,17.00
2022-09-15T01:13:10.616Z,17.00
2022-09-15T01:16:03.834Z,16.90
2022-09-15T01:19:13.260Z,16.80
2022-09-15T01:22:04.056Z,16.90
2022-09-15T01:25:15.534Z,16.70
2022-09-15T01:28:30.599Z,16.70
2022-09-15T01:31:24.264Z,16.70
2022-09-15T01:34:09.277Z,16.60
2022-09-15T01:37:06.094Z,16.50
2022-09-15T01:39:41.750Z,16.60
2022-09-15T01:42:14.674Z,16.60
2022-09-15T01:44:58.072Z,16.60
2022-09-15T01:47:28.480Z,16.50
2022-09-15T01:50:20.752Z,16.50
2022-09-15T01:52:53.719Z,16.50
2022-09-15T01:55:38.713Z,16.50
2022-09-15T01:58:05.423Z,16.40
2022-09-15T02:00:43.461Z,16.40
2022-09-15T02:03:33.676Z,16.50
2022-09-15T02:06:10.509Z,16.50
2022-09-15T02:08:48.053Z,16.50
2022-09-15T02:11:20.246Z,16.40
2022-09-15T02:14:28.298Z,16.30
2022-09-15T02:16:55.225Z,16.30
2022-09-15T02:19:43.955Z,16.20
2022-09-15T02:22:34.579Z,16.00
2022-09-15T02:25:09.770Z,15.90
2022-09-15T02:27:44.525Z,15.90
2022-09-15T02:30:17.002Z,15.90
2022-09-15T02:33:00.132Z,15.90
2022-09-15T02:35:30.913Z,16.00
2022-09-15T02:38:00.031Z,16.00
2022-09-15T02:40:29.591Z,16.00
2022-09-15T02:43:05.749Z,16.00
2022-09-15T02:45:32.533Z,16.10
2022-09-15T02:47:59.564Z,16.20
2022-09-15T02:50:26.630Z,16.30
2022-09-15T02:52:57.448Z,16.30
2022-09-15T02:55:27.211Z,16.40
2022-09-15T02:57:53.876Z,16.50
2022-09-15T03:00:20.778Z,16.50
2022-09-15T03:02:52.175Z,16.60
2022-09-15T03:05:29.181Z,16.60
2022-09-15T03:07:57.152Z,16.60
2022-09-15T03:10:25.924Z,16.40
2022-09-15T03:12:54.574Z,16.40
2022-09-15T03:15:25.700Z,16.40
2022-09-15T03:17:54.015Z,16.20
2022-09-15T03:20:30.458Z,16.10
2022-09-15T03:22:57.282Z,16.10
2022-09-15T03:25:26.742Z,16.10
2022-09-15T03:27:53.428Z,16.10
2022-09-15T03:30:20.172Z,16.10
2022-09-15T03:32:47.665Z,16.00
2022-09-15T03:35:14.423Z,16.00
2022-09-15T03:37:41.276Z,15.90
2022-09-15T03:40:10.635Z,15.90
2022-09-15T03:42:37.591Z,16.00
2022-09-15T03:45:04.782Z,16.00
2022-09-15T03:47:32.663Z,15.90
2022-09-15T03:50:00.288Z,15.90
2022-09-15T03:52:31.849Z,15.90
2022-09-15T03:54:59.121Z,15.90
2022-09-15T03:57:26.147Z,15.90
2022-09-15T03:59:52.809Z,15.80
2022-09-15T04:02:19.543Z,15.90
2022-09-15T04:04:46.240Z,15.90
2022-09-15T04:07:13.026Z,15.90
2022-09-15T04:09:39.788Z,16.00
2022-09-15T04:12:06.750Z,16.00
2022-09-15T04:14:33.445Z,16.10
2022-09-15T04:17:00.108Z,16.10
2022-09-15T04:19:28.299Z,16.10
2022-09-15T04:21:54.968Z,16.20
2022-09-15T04:24:21.663Z,16.30
2022-09-15T04:26:48.489Z,16.30
2022-09-15T04:29:17.413Z,16.40
2022-09-15T04:31:44.494Z,16.30
2022-09-15T04:34:11.500Z,16.20
2022-09-15T04:36:38.266Z,16.20
2022-09-15T04:39:06.691Z,16.10
2022-09-15T04:41:33.802Z,16.10
2022-09-15T04:44:00.951Z,16.10
2022-09-15T04:46:27.856Z,16.10
2022-09-15T04:48:56.536Z,16.00
2022-09-15T04:51:24.233Z,16.00
2022-09-15T04:53:52.028Z,16.10
2022-09-15T04:56:24.026Z,16.10
2022-09-15T04:58:58.265Z,16.10
2022-09-15T05:01:32.690Z,16.10
2022-09-15T05:04:03.925Z,16.00
2022-09-15T05:06:33.138Z,16.00
2022-09-15T05:08:59.912Z,16.10
2022-09-15T05:11:30.851Z,16.10
2022-09-15T05:13:57.550Z,16.10
2022-09-15T05:16:27.473Z,16.10
2022-09-15T05:18:58.860Z,16.10
2022-09-15T05:21:28.046Z,16.10
2022-09-15T05:23:55.618Z,16.10
2022-09-15T05:26:26.318Z,16.10
2022-09-15T05:28:53.630Z,16.10
2022-09-15T05:31:31.432Z,16.10
2022-09-15T05:34:02.700Z,16.10
2022-09-15T05:36:30.515Z,16.10
2022-09-15T05:38:58.468Z,16.00
2022-09-15T05:41:30.809Z,15.90
2022-09-15T05:43:59.033Z,15.80
2022-09-15T05:46:29.534Z,15.80
2022-09-15T05:48:58.929Z,15.70
2022-09-15T05:51:26.455Z,15.70
2022-09-15T05:53:53.190Z,15.70
2022-09-15T05:56:20.560Z,15.60
2022-09-15T05:58:49.080Z,15.60
2022-09-15T06:01:26.364Z,15.60
2022-09-15T06:03:55.022Z,15.60
2022-09-15T06:06:23.104Z,15.70
2022-09-15T06:08:58.004Z,15.70
2022-09-15T06:11:29.805Z,15.80
2022-09-15T06:14:06.109Z,15.90
2022-09-15T06:16:35.519Z,16.00
2022-09-15T06:19:03.323Z,16.00
2022-09-15T06:21:32.560Z,16.00
2022-09-15T06:24:03.246Z,16.10
2022-09-15T06:26:30.530Z,16.00
2022-09-15T06:29:03.755Z,16.00
2022-09-15T06:31:33.378Z,16.00
2022-09-15T06:34:01.015Z,16.00
2022-09-15T06:36:30.179Z,16.20
2022-09-15T06:38:58.293Z,16.10
2022-09-15T06:41:25.464Z,16.20
2022-09-15T06:43:53.485Z,16.30
2022-09-15T06:46:25.237Z,16.40
2022-09-15T06:48:53.463Z,16.50
2022-09-15T06:51:24.397Z,16.40
2022-09-15T06:53:53.098Z,16.50
2022-09-15T06:56:24.616Z,16.50
2022-09-15T06:58:51.333Z,16.50
2022-09-15T07:01:28.470Z,16.50
2022-09-15T07:03:58.027Z,16.50
2022-09-15T07:06:27.383Z,16.50
2022-09-15T07:08:54.143Z,16.50
2022-09-15T07:11:21.355Z,16.30
2022-09-15T07:13:49.137Z,16.10
2022-09-15T07:16:18.769Z,16.00
2022-09-15T07:18:47.539Z,15.90
2022-09-15T07:21:24.558Z,15.90
2022-09-15T07:23:51.762Z,16.00
2022-09-15T07:26:30.354Z,16.00
2022-09-15T07:29:04.949Z,16.00
2022-09-15T07:31:35.674Z,15.90
2022-09-15T07:34:03.595Z,15.90
2022-09-15T07:36:31.861Z,16.00
2022-09-15T07:38:58.921Z,16.00
2022-09-15T07:41:29.286Z,16.10
2022-09-15T07:43:59.096Z,16.20
2022-09-15T07:46:33.161Z,16.30
2022-09-15T07:49:01.023Z,16.40
2022-09-15T07:51:27.731Z,16.50
2022-09-15T07:53:55.229Z,16.50
2022-09-15T07:56:24.439Z,16.60
2022-09-15T07:58:51.764Z,16.60
2022-09-15T08:01:20.409Z,16.60
2022-09-15T08:03:51.207Z,16.60
2022-09-15T08:06:22.615Z,16.50
2022-09-15T08:08:52.253Z,16.50
2022-09-15T08:11:21.182Z,16.50
2022-09-15T08:13:50.910Z,16.60
2022-09-15T08:16:22.052Z,16.50
2022-09-15T08:18:52.919Z,16.60
2022-09-15T08:21:21.762Z,16.60
2022-09-15T08:23:56.732Z,16.60
2022-09-15T08:26:25.148Z,16.60
2022-09-15T08:28:52.108Z,16.60
2022-09-15T08:31:19.203Z,16.60
2022-09-15T08:33:51.790Z,16.40
2022-09-15T08:36:18.714Z,16.50
2022-09-15T08:38:46.727Z,16.50
2022-09-15T08:41:29.589Z,16.50
2022-09-15T08:44:40.678Z,16.60
2022-09-15T08:47:45.512Z,16.50
2022-09-15T08:50:45.701Z,16.50
2022-09-15T08:53:25.992Z,16.40
2022-09-15T08:56:09.331Z,16.00
2022-09-15T08:58:37.818Z,15.70
2022-09-15T09:01:21.809Z,15.80
2022-09-15T09:04:09.748Z,15.90
2022-09-15T09:06:59.011Z,16.00
2022-09-15T09:10:06.967Z,16.00
2022-09-15T09:13:10.572Z,16.10
2022-09-15T09:16:33.476Z,16.20
2022-09-15T09:19:08.444Z,16.30
2022-09-15T09:22:11.057Z,16.60
2022-09-15T09:24:46.530Z,16.50
2022-09-15T09:27:18.184Z,16.70
2022-09-15T09:29:54.811Z,16.70
2022-09-15T09:32:33.818Z,16.80
2022-09-15T09:35:05.228Z,17.00
2022-09-15T09:37:33.812Z,17.30
2022-09-15T09:40:02.845Z,17.50
2022-09-15T09:42:33.417Z,17.60
2022-09-15T09:45:02.187Z,17.60
2022-09-15T09:47:29.745Z,17.80
2022-09-15T09:49:56.873Z,17.80
2022-09-15T09:52:39.561Z,18.00
2022-09-15T09:55:28.088Z,17.90
2022-09-15T09:58:15.876Z,18.10
2022-09-15T10:00:53.096Z,18.00
2022-09-15T10:03:30.617Z,18.00
2022-09-15T10:06:30.673Z,17.90
2022-09-15T10:09:18.810Z,18.00
2022-09-15T10:11:58.556Z,18.00
2022-09-15T10:14:35.226Z,18.00
2022-09-15T10:17:17.728Z,17.90
2022-09-15T10:19:54.889Z,18.00
2022-09-15T10:22:39.460Z,18.20
2022-09-15T10:25:23.512Z,18.30
2022-09-15T10:28:19.648Z,18.50
2022-09-15T10:31:08.321Z,18.60
2022-09-15T10:33:47.704Z,18.60
2022-09-15T10:36:31.956Z,18.60
2022-09-15T10:39:31.649Z,18.70
2022-09-15T10:42:13.010Z,18.90
2022-09-15T10:45:06.864Z,19.10
2022-09-15T10:47:51.874Z,19.00
2022-09-15T10:50:55.935Z,19.10
2022-09-15T10:53:57.627Z,19.30
2022-09-15T10:56:35.048Z,19.30
2022-09-15T10:59:46.294Z,19.10
2022-09-15T11:02:52.018Z,18.90
2022-09-15T11:05:53.100Z,18.60
2022-09-15T11:09:20.427Z,18.80
2022-09-15T11:12:16.605Z,18.70
2022-09-15T11:15:15.294Z,18.60
2022-09-15T11:18:12.737Z,19.20
2022-09-15T11:20:50.260Z,19.20
2022-09-15T11:23:40.552Z,18.90
2022-09-15T11:26:23.871Z,18.50
2022-09-15T11:28:59.474Z,18.50
2022-09-15T11:31:43.659Z,18.50
2022-09-15T11:34:26.416Z,18.60
2022-09-15T11:37:21.575Z,18.50
2022-09-15T11:40:07.728Z,18.90
2022-09-15T11:42:48.908Z,19.30
2022-09-15T11:45:27.262Z,19.50
2022-09-15T11:48:04.380Z,19.80
2022-09-15T11:50:38.621Z,19.90
2022-09-15T11:53:17.702Z,19.80
2022-09-15T11:56:00.235Z,19.80
2022-09-15T11:58:52.624Z,20.00
2022-09-15T12:01:48.808Z,20.10
2022-09-15T12:04:29.993Z,20.10
2022-09-15T12:07:12.256Z,19.80
2022-09-15T12:09:40.940Z,19.70
2022-09-15T12:12:20.272Z,19.50
2022-09-15T12:14:51.969Z,19.50
2022-09-15T12:18:01.343Z,19.30
2022-09-15T12:20:54.204Z,19.30
2022-09-15T12:24:03.132Z,19.20
2022-09-15T12:26:33.684Z,19.10
2022-09-15T12:29:26.774Z,19.40
2022-09-15T12:32:28.730Z,19.10
2022-09-15T12:35:18.885Z,19.00
2022-09-15T12:38:00.528Z,18.90
2022-09-15T12:40:30.614Z,18.60
2022-09-15T12:42:57.813Z,18.30
2022-09-15T12:45:36.160Z,18.10
2022-09-15T12:48:35.656Z,18.00
2022-09-15T12:51:24.454Z,18.00
2022-09-15T12:54:05.033Z,17.90
2022-09-15T12:56:34.020Z,18.00
2022-09-15T12:59:07.377Z,18.00
2022-09-15T13:01:48.835Z,17.90
2022-09-15T13:04:54.888Z,18.00
2022-09-15T13:07:34.600Z,18.10
2022-09-15T13:10:13.486Z,18.10
2022-09-15T13:12:54.391Z,18.20
2022-09-15T13:15:25.684Z,18.20
2022-09-15T13:17:54.499Z,18.30
2022-09-15T13:20:31.989Z,18.30
2022-09-15T13:23:02.093Z,18.20
2022-09-15T13:25:32.270Z,18.30
2022-09-15T13:28:02.512Z,18.30
2022-09-15T13:31:08.771Z,18.30
2022-09-15T13:38:21.195Z,18.40
2022-09-15T13:41:24.179Z,18.30
2022-09-15T13:44:02.721Z,18.30
2022-09-15T13:46:57.206Z,18.30
2022-09-15T13:49:57.676Z,18.20
2022-09-15T13:52:49.942Z,18.20
2022-09-15T13:55:42.268Z,18.40
2022-09-15T14:01:25.816Z,19.40
2022-09-15T14:04:17.397Z,19.50
2022-09-15T14:07:19.853Z,19.70
2022-09-15T14:09:48.968Z,19.50
2022-09-15T14:12:38.034Z,18.90
2022-09-15T14:15:07.014Z,18.50
2022-09-15T14:17:44.702Z,18.50
2022-09-15T14:20:33.221Z,18.90
2022-09-15T14:23:00.449Z,18.90
2022-09-15T14:25:29.463Z,18.80
2022-09-15T14:27:56.580Z,18.50
2022-09-15T14:30:31.892Z,18.70
2022-09-15T14:33:02.113Z,18.60
2022-09-15T14:35:37.789Z,18.50
2022-09-15T14:38:05.065Z,18.50
2022-09-15T14:40:37.768Z,18.50
2022-09-15T14:43:28.047Z,18.40
2022-09-15T14:46:03.001Z,18.30
2022-09-15T14:48:34.240Z,18.10
2022-09-15T14:51:08.568Z,18.10
2022-09-15T14:53:40.822Z,18.20
2022-09-15T14:56:22.574Z,18.10
2022-09-15T14:59:19.125Z,18.10
2022-09-15T15:02:30.372Z,18.10
2022-09-15T15:05:22.934Z,18.20
2022-09-15T15:07:54.127Z,18.20
2022-09-15T15:10:32.227Z,18.10
2022-09-15T15:13:16.051Z,18.00
2022-09-15T15:15:44.256Z,18.10
2022-09-15T15:18:41.337Z,18.20
2022-09-15T15:21:40.818Z,18.30
2022-09-15T15:24:20.519Z,18.40
2022-09-15T15:26:50.238Z,18.60
2022-09-15T15:29:43.199Z,18.90
2022-09-15T15:32:13.655Z,19.10
2022-09-15T15:34:48.411Z,19.30
2022-09-15T15:37:31.251Z,18.80
2022-09-15T15:40:07.059Z,18.60
2022-09-15T15:42:34.734Z,18.60
2022-09-15T15:45:25.348Z,18.50
2022-09-15T15:47:58.299Z,18.50
2022-09-15T15:50:28.178Z,18.50
2022-09-15T15:52:55.945Z,18.40
2022-09-15T15:55:28.395Z,18.30
2022-09-15T15:57:56.109Z,18.20
2022-09-15T16:00:29.882Z,18.20
2022-09-15T16:02:56.735Z,18.00
2022-09-15T16:05:29.036Z,18.00
2022-09-15T16:08:01.478Z,18.00
2022-09-15T16:10:37.609Z,18.00
2022-09-15T16:13:04.333Z,18.20
2022-09-15T16:15:31.020Z,18.00
2022-09-15T16:17:57.876Z,17.70
2022-09-15T16:20:25.014Z,17.50
2022-09-15T16:22:52.113Z,17.70
2022-09-15T16:25:46.470Z,17.50
2022-09-15T16:28:13.347Z,17.40
2022-09-15T16:30:40.172Z,17.20
2022-09-15T16:33:06.907Z,17.20
2022-09-15T16:35:39.899Z,17.20
2022-09-15T16:38:08.489Z,17.20
2022-09-15T16:40:37.427Z,17.10
2022-09-15T16:43:12.203Z,16.90
2022-09-15T16:45:40.815Z,16.70
2022-09-15T16:48:09.632Z,16.60
2022-09-15T16:50:40.174Z,16.60
2022-09-15T16:53:22.126Z,16.40
2022-09-15T16:55:52.080Z,16.50
2022-09-15T16:58:20.538Z,16.50
2022-09-15T17:00:51.433Z,16.60
2022-09-15T17:03:24.469Z,16.50
2022-09-15T17:05:57.885Z,16.50
2022-09-15T17:08:31.279Z,16.50
2022-09-15T17:11:04.369Z,16.60
2022-09-15T17:13:34.240Z,16.70
2022-09-15T17:16:04.850Z,16.60
2022-09-15T17:18:31.900Z,16.60
2022-09-15T17:20:59.349Z,16.60
2022-09-15T17:23:37.412Z,16.70
2022-09-15T17:26:11.057Z,16.60
2022-09-15T17:28:37.891Z,16.40
2022-09-15T17:31:21.108Z,16.40
2022-09-15T17:33:49.669Z,16.40
2022-09-15T17:36:17.217Z,16.40
2022-09-15T17:38:45.266Z,16.40
2022-09-15T17:41:22.244Z,16.30
2022-09-15T17:43:49.406Z,16.30
2022-09-15T17:46:16.609Z,16.20
2022-09-15T17:48:43.414Z,16.20
2022-09-15T17:51:17.256Z,16.10
2022-09-15T17:53:47.596Z,16.10
2022-09-15T17:56:14.434Z,16.10
2022-09-15T17:58:41.368Z,16.10
2022-09-15T18:01:11.980Z,16.10
2022-09-15T18:03:38.915Z,16.20
2022-09-15T18:06:08.674Z,16.20
2022-09-15T18:08:36.293Z,16.20
2022-09-15T18:11:05.047Z,15.80
2022-09-15T18:13:32.341Z,15.40
2022-09-15T18:16:11.206Z,15.20
2022-09-15T18:18:39.924Z,15.20
2022-09-15T18:21:24.441Z,15.00
2022-09-15T18:23:51.174Z,14.80
2022-09-15T18:26:21.451Z,14.80
2022-09-15T18:28:54.306Z,14.60
2022-09-15T18:31:21.270Z,14.60
2022-09-15T18:33:48.019Z,14.60
2022-09-15T18:36:17.750Z,14.60
2022-09-15T18:38:44.442Z,14.50
2022-09-15T18:41:14.402Z,14.60
2022-09-15T18:43:41.282Z,14.50
2022-09-15T18:46:08.092Z,14.40
2022-09-15T18:48:35.043Z,14.40
2022-09-15T18:51:01.772Z,14.50
2022-09-15T18:53:29.477Z,14.60
2022-09-15T18:55:56.373Z,14.50
2022-09-15T18:58:24.015Z,14.50
2022-09-15T19:00:50.807Z,14.80
2022-09-15T19:03:17.503Z,15.00
2022-09-15T19:05:45.672Z,15.00
2022-09-15T19:08:12.462Z,15.00
2022-09-15T19:10:42.073Z,15.00
2022-09-15T19:13:11.182Z,15.00
2022-09-15T19:15:41.069Z,14.90
2022-09-15T19:18:07.798Z,14.90
2022-09-15T19:20:34.465Z,15.00
2022-09-15T19:23:01.151Z,15.00
2022-09-15T19:25:32.571Z,15.00
2022-09-15T19:27:59.422Z,15.20
2022-09-15T19:30:26.215Z,15.10
2022-09-15T19:32:53.008Z,15.10
2022-09-15T19:35:22.468Z,15.00
2022-09-15T19:37:49.539Z,14.90
2022-09-15T19:40:16.811Z,14.90
2022-09-15T19:42:44.836Z,14.90
2022-09-15T19:45:12.925Z,14.90
2022-09-15T19:47:41.163Z,14.80
2022-09-15T19:50:11.969Z,14.70
2022-09-15T19:52:38.864Z,14.70
2022-09-15T19:55:08.008Z,14.60
2022-09-15T19:57:38.681Z,14.60
2022-09-15T20:00:07.645Z,14.40
2022-09-15T20:02:34.429Z,14.50
2022-09-15T20:05:01.268Z,14.60
2022-09-15T20:07:27.961Z,14.60
2022-09-15T20:09:54.976Z,14.50
2022-09-15T20:14:54.528Z,14.50
2022-09-15T20:17:21.255Z,14.60
2022-09-15T20:19:48.257Z,14.70
2022-09-15T20:22:15.033Z,14.90
2022-09-15T20:24:41.692Z,14.80
2022-09-15T20:27:08.887Z,14.90
2022-09-15T20:29:35.699Z,14.90
2022-09-15T20:32:02.612Z,14.90
2022-09-15T20:34:29.395Z,14.90
2022-09-15T20:36:56.292Z,14.80
2022-09-15T20:39:23.594Z,14.80
2022-09-15T20:41:50.501Z,14.90
2022-09-15T20:44:17.190Z,14.90
2022-09-15T20:46:43.930Z,14.90
2022-09-15T20:49:12.318Z,14.90
2022-09-15T20:51:39.044Z,14.90
2022-09-15T20:54:06.128Z,14.80
2022-09-15T20:56:38.469Z,14.60
2022-09-15T20:59:06.706Z,14.60
2022-09-15T21:01:38.103Z,14.60
2022-09-15T21:04:08.807Z,14.80
2022-09-15T21:06:36.595Z,14.90
2022-09-15T21:09:05.946Z,15.00
2022-09-15T21:11:33.564Z,15.00
2022-09-15T21:14:00.992Z,14.90
2022-09-15T21:16:29.524Z,14.80
2022-09-15T21:18:58.439Z,14.90
2022-09-15T21:21:29.765Z,14.90
2022-09-15T21:24:03.499Z,14.90
2022-09-15T21:26:59.530Z,14.80
2022-09-15T21:29:27.715Z,14.80
2022-09-15T21:32:04.441Z,14.90
2022-09-15T21:34:31.610Z,15.00
2022-09-15T21:36:58.342Z,15.00
2022-09-15T21:39:25.004Z,15.10
2022-09-15T21:41:51.760Z,15.00
2022-09-15T21:44:18.564Z,14.90
2022-09-15T21:46:46.930Z,14.90
2022-09-15T21:49:13.880Z,14.70
2022-09-15T21:51:40.609Z,14.60
2022-09-15T21:54:07.329Z,14.40
2022-09-15T21:56:34.227Z,14.20
2022-09-15T21:59:03.548Z,14.10
2022-09-15T22:01:32.773Z,13.90
2022-09-15T22:04:10.096Z,13.80
2022-09-15T22:06:40.516Z,13.80
2022-09-15T22:09:15.160Z,13.90
2022-09-15T22:11:42.575Z,14.00
2022-09-15T22:14:10.607Z,14.00
2022-09-15T22:16:40.235Z,14.10
2022-09-15T22:19:10.104Z,14.10
2022-09-15T22:21:41.397Z,14.30
2022-09-15T22:24:11.765Z,14.40
2022-09-15T22:26:39.346Z,14.50
2022-09-15T22:29:06.707Z,14.30
2022-09-15T22:31:34.617Z,14.30
2022-09-15T22:34:02.084Z,14.30
2022-09-15T22:36:32.165Z,14.30
2022-09-15T22:39:04.388Z,14.30
2022-09-15T22:41:37.511Z,14.20
2022-09-15T22:44:06.567Z,14.10
2022-09-15T22:46:34.070Z,14.10
2022-09-15T22:49:00.935Z,14.10
2022-09-15T22:51:27.704Z,14.10
2022-09-15T22:53:57.671Z,14.10
2022-09-15T22:56:26.155Z,14.10
2022-09-15T22:58:53.433Z,14.00
2022-09-15T23:01:24.022Z,13.90
2022-09-15T23:03:56.736Z,13.80
2022-09-15T23:06:46.224Z,13.80
2022-09-15T23:09:12.985Z,13.80
2022-09-15T23:11:46.856Z,13.70
2022-09-15T23:14:16.764Z,13.70
2022-09-15T23:16:44.535Z,13.80
2022-09-15T23:19:14.688Z,13.80
2022-09-15T23:21:41.430Z,13.80
2022-09-15T23:24:08.716Z,13.80
2022-09-15T23:26:35.474Z,13.90
2022-09-15T23:29:02.325Z,13.90
2022-09-15T23:31:29.153Z,14.00
2022-09-15T23:33:55.880Z,14.10
2022-09-15T23:36:22.701Z,14.10
2022-09-15T23:38:50.289Z,14.10
2022-09-15T23:41:18.523Z,14.10
2022-09-15T23:43:46.539Z,14.20
2022-09-15T23:46:15.834Z,14.20
2022-09-15T23:48:42.958Z,14.30
2022-09-15T23:51:09.879Z,14.40
2022-09-15T23:53:37.079Z,14.40
2022-09-15T23:56:04.558Z,14.50
2022-09-15T23:58:31.495Z,14.50
